sensor_id;sensor_type;location;lat;lon;timestamp;temperature;humidity
39881;DHT22;25554;44.954;10.068;2024-01-15T00:01:59;1.50;99.90
39881;DHT22;25554;44.954;10.068;2024-01-15T00:04:29;1.50;99.90
39881;DHT22;25554;44.954;10.068;2024-01-15T00:06:55;1.50;99.90
39881;DHT22;25554;44.954;10.068;2024-01-15T00:09:23;1.40;99.90
39881;DHT22;25554;44.954;10.068;2024-01-15T00:11:49;1.40;99.90
39881;DHT22;25554;44.954;10.068;2024-01-15T00:14:16;1.40;99.90
39881;DHT22;25554;44.954;10.068;2024-01-15T00:16:46;1.40;99.90
39881;DHT22;25554;44.954;10.068;2024-01-15T00:19:17;1.40;99.90
39881;DHT22;25554;44.954;10.068;2024-01-15T00:21:44;1.40;99.90
39881;DHT22;25554;44.954;10.068;2024-01-15T00:24:11;1.40;99.90
39881;DHT22;25554;44.954;10.068;2024-01-15T00:26:39;1.40;99.90
39881;DHT22;25554;44.954;10.068;2024-01-15T00:29:09;1.40;99.90
39881;DHT22;25554;44.954;10.068;2024-01-15T00:31:36;1.40;99.90
39881;DHT22;25554;44.954;10.068;2024-01-15T00:34:03;1.40;99.90
39881;DHT22;25554;44.954;10.068;2024-01-15T00:36:29;1.40;99.90
39881;DHT22;25554;44.954;10.068;2024-01-15T00:38:56;1.40;99.90
39881;DHT22;25554;44.954;10.068;2024-01-15T00:41:22;1.40;99.90
39881;DHT22;25554;44.954;10.068;2024-01-15T00:43:50;1.30;99.90
39881;DHT22;25554;44.954;10.068;2024-01-15T00:46:16;1.30;99.90
39881;DHT22;25554;44.954;10.068;2024-01-15T00:48:43;1.30;99.90
39881;DHT22;25554;44.954;10.068;2024-01-15T00:51:09;1.30;99.90
39881;DHT22;25554;44.954;10.068;2024-01-15T00:53:37;1.30;99.90
39881;DHT22;25554;44.954;10.068;2024-01-15T00:56:04;1.30;99.90
39881;DHT22;25554;44.954;10.068;2024-01-15T00:58:30;1.40;99.90
39881;DHT22;25554;44.954;10.068;2024-01-15T01:00:57;1.30;99.90
39881;DHT22;25554;44.954;10.068;2024-01-15T01:03:24;1.40;99.90
39881;DHT22;25554;44.954;10.068;2024-01-15T01:05:50;1.40;99.90
39881;DHT22;25554;44.954;10.068;2024-01-15T01:08:17;1.30;99.90
39881;DHT22;25554;44.954;10.068;2024-01-15T01:10:44;1.30;99.90
39881;DHT22;25554;44.954;10.068;2024-01-15T01:13:11;1.30;99.90
39881;DHT22;25554;44.954;10.068;2024-01-15T01:15:41;1.30;99.90
39881;DHT22;25554;44.954;10.068;2024-01-15T01:18:08;1.30;99.90
39881;DHT22;25554;44.954;10.068;2024-01-15T01:20:34;1.30;99.90
39881;DHT22;25554;44.954;10.068;2024-01-15T01:23:00;1.30;99.90
39881;DHT22;25554;44.954;10.068;2024-01-15T01:25:27;1.40;99.90
39881;DHT22;25554;44.954;10.068;2024-01-15T01:27:53;1.30;99.90
39881;DHT22;25554;44.954;10.068;2024-01-15T01:30:25;1.30;99.90
39881;DHT22;25554;44.954;10.068;2024-01-15T01:32:52;1.20;99.90
39881;DHT22;25554;44.954;10.068;2024-01-15T01:35:18;1.40;99.90
39881;DHT22;25554;44.954;10.068;2024-01-15T01:37:45;1.40;99.90
39881;DHT22;25554;44.954;10.068;2024-01-15T01:40:12;1.40;99.90
39881;DHT22;25554;44.954;10.068;2024-01-15T01:42:39;1.30;99.90
39881;DHT22;25554;44.954;10.068;2024-01-15T01:45:05;1.30;99.90
39881;DHT22;25554;44.954;10.068;2024-01-15T01:47:32;1.30;99.90
39881;DHT22;25554;44.954;10.068;2024-01-15T01:49:59;1.30;99.90
39881;DHT22;25554;44.954;10.068;2024-01-15T01:52:26;1.30;99.90
39881;DHT22;25554;44.954;10.068;2024-01-15T01:54:53;1.30;99.90
39881;DHT22;25554;44.954;10.068;2024-01-15T01:57:20;1.40;99.90
39881;DHT22;25554;44.954;10.068;2024-01-15T01:59:47;1.40;99.90
39881;DHT22;25554;44.954;10.068;2024-01-15T02:02:14;1.40;99.90
39881;DHT22;25554;44.954;10.068;2024-01-15T02:04:42;1.40;99.90
39881;DHT22;25554;44.954;10.068;2024-01-15T02:07:11;1.50;99.90
39881;DHT22;25554;44.954;10.068;2024-01-15T02:09:41;1.50;99.90
39881;DHT22;25554;44.954;10.068;2024-01-15T02:12:09;1.50;99.90
39881;DHT22;25554;44.954;10.068;2024-01-15T02:14:36;1.50;99.90
39881;DHT22;25554;44.954;10.068;2024-01-15T02:17:03;1.40;99.90
39881;DHT22;25554;44.954;10.068;2024-01-15T02:19:32;1.40;99.90
39881;DHT22;25554;44.954;10.068;2024-01-15T02:21:59;1.50;99.90
39881;DHT22;25554;44.954;10.068;2024-01-15T02:24:26;1.40;99.90
39881;DHT22;25554;44.954;10.068;2024-01-15T02:26:52;1.40;99.90
39881;DHT22;25554;44.954;10.068;2024-01-15T02:29:19;1.00;99.90
39881;DHT22;25554;44.954;10.068;2024-01-15T02:31:46;1.40;99.90
39881;DHT22;25554;44.954;10.068;2024-01-15T02:34:12;1.30;99.90
39881;DHT22;25554;44.954;10.068;2024-01-15T02:36:40;1.30;99.90
39881;DHT22;25554;44.954;10.068;2024-01-15T02:39:06;1.30;99.90
39881;DHT22;25554;44.954;10.068;2024-01-15T02:41:32;1.30;99.90
39881;DHT22;25554;44.954;10.068;2024-01-15T02:43:59;1.20;99.90
39881;DHT22;25554;44.954;10.068;2024-01-15T02:46:26;1.20;99.90
39881;DHT22;25554;44.954;10.068;2024-01-15T02:48:52;1.20;99.90
39881;DHT22;25554;44.954;10.068;2024-01-15T02:51:19;1.40;99.90
39881;DHT22;25554;44.954;10.068;2024-01-15T02:53:46;1.10;99.90
39881;DHT22;25554;44.954;10.068;2024-01-15T02:56:12;1.10;99.90
39881;DHT22;25554;44.954;10.068;2024-01-15T02:58:38;1.10;99.90
39881;DHT22;25554;44.954;10.068;2024-01-15T03:01:05;1.00;99.90
39881;DHT22;25554;44.954;10.068;2024-01-15T03:03:31;1.00;99.90
39881;DHT22;25554;44.954;10.068;2024-01-15T03:05:59;1.00;99.90
39881;DHT22;25554;44.954;10.068;2024-01-15T03:08:25;1.00;99.90
39881;DHT22;25554;44.954;10.068;2024-01-15T03:10:52;1.00;99.90
39881;DHT22;25554;44.954;10.068;2024-01-15T03:13:20;1.00;99.90
39881;DHT22;25554;44.954;10.068;2024-01-15T03:15:46;0.90;99.90
39881;DHT22;25554;44.954;10.068;2024-01-15T03:18:13;0.90;99.90
39881;DHT22;25554;44.954;10.068;2024-01-15T03:20:40;0.90;99.90
39881;DHT22;25554;44.954;10.068;2024-01-15T03:23:06;0.90;99.90
39881;DHT22;25554;44.954;10.068;2024-01-15T03:25:33;0.80;99.90
39881;DHT22;25554;44.954;10.068;2024-01-15T03:28:00;0.80;99.90
39881;DHT22;25554;44.954;10.068;2024-01-15T03:30:27;0.80;99.90
39881;DHT22;25554;44.954;10.068;2024-01-15T03:32:53;0.80;99.90
39881;DHT22;25554;44.954;10.068;2024-01-15T03:35:20;0.80;99.90
39881;DHT22;25554;44.954;10.068;2024-01-15T03:37:46;0.80;99.90
39881;DHT22;25554;44.954;10.068;2024-01-15T03:40:13;0.90;99.90
39881;DHT22;25554;44.954;10.068;2024-01-15T03:42:39;0.90;99.90
39881;DHT22;25554;44.954;10.068;2024-01-15T03:45:06;0.90;99.90
39881;DHT22;25554;44.954;10.068;2024-01-15T03:47:33;0.90;99.90
39881;DHT22;25554;44.954;10.068;2024-01-15T03:50:00;0.90;99.90
39881;DHT22;25554;44.954;10.068;2024-01-15T03:52:27;1.00;99.90
39881;DHT22;25554;44.954;10.068;2024-01-15T03:54:54;1.00;99.90
39881;DHT22;25554;44.954;10.068;2024-01-15T03:57:20;1.10;99.90
39881;DHT22;25554;44.954;10.068;2024-01-15T03:59:46;1.10;99.90
39881;DHT22;25554;44.954;10.068;2024-01-15T04:02:13;1.10;99.90
39881;DHT22;25554;44.954;10.068;2024-01-15T04:04:46;1.20;99.90
39881;DHT22;25554;44.954;10.068;2024-01-15T04:07:12;1.20;99.90
39881;DHT22;25554;44.954;10.068;2024-01-15T04:09:39;1.20;99.90
39881;DHT22;25554;44.954;10.068;2024-01-15T04:12:05;1.20;99.90
39881;DHT22;25554;44.954;10.068;2024-01-15T04:14:33;1.20;99.90
39881;DHT22;25554;44.954;10.068;2024-01-15T04:17:00;1.20;99.90
39881;DHT22;25554;44.954;10.068;2024-01-15T04:19:26;1.30;99.90
39881;DHT22;25554;44.954;10.068;2024-01-15T04:21:52;1.30;99.90
39881;DHT22;25554;44.954;10.068;2024-01-15T04:24:20;1.20;99.90
39881;DHT22;25554;44.954;10.068;2024-01-15T04:26:46;1.20;99.90
39881;DHT22;25554;44.954;10.068;2024-01-15T04:29:13;1.20;99.90
39881;DHT22;25554;44.954;10.068;2024-01-15T04:31:39;1.20;99.90
39881;DHT22;25554;44.954;10.068;2024-01-15T04:34:05;1.20;99.90
39881;DHT22;25554;44.954;10.068;2024-01-15T04:36:32;1.10;99.90
39881;DHT22;25554;44.954;10.068;2024-01-15T04:39:04;1.20;99.90
39881;DHT22;25554;44.954;10.068;2024-01-15T04:41:30;1.10;99.90
39881;DHT22;25554;44.954;10.068;2024-01-15T04:43:57;1.10;99.90
39881;DHT22;25554;44.954;10.068;2024-01-15T04:46:24;1.10;99.90
39881;DHT22;25554;44.954;10.068;2024-01-15T04:48:50;1.10;99.90
39881;DHT22;25554;44.954;10.068;2024-01-15T04:51:16;1.10;99.90
39881;DHT22;25554;44.954;10.068;2024-01-15T04:53:43;1.10;99.90
39881;DHT22;25554;44.954;10.068;2024-01-15T04:56:09;1.10;99.90
39881;DHT22;25554;44.954;10.068;2024-01-15T04:58:35;1.10;99.90
39881;DHT22;25554;44.954;10.068;2024-01-15T05:01:01;1.10;99.90
39881;DHT22;25554;44.954;10.068;2024-01-15T05:03:28;1.10;99.90
39881;DHT22;25554;44.954;10.068;2024-01-15T05:05:55;1.10;99.90
39881;DHT22;25554;44.954;10.068;2024-01-15T05:08:22;1.10;99.90
39881;DHT22;25554;44.954;10.068;2024-01-15T05:10:48;1.10;99.90
39881;DHT22;25554;44.954;10.068;2024-01-15T05:13:15;1.10;99.90
39881;DHT22;25554;44.954;10.068;2024-01-15T05:15:41;1.10;99.90
39881;DHT22;25554;44.954;10.068;2024-01-15T05:18:07;1.10;99.90
39881;DHT22;25554;44.954;10.068;2024-01-15T05:20:34;1.10;99.90
39881;DHT22;25554;44.954;10.068;2024-01-15T05:23:00;1.10;99.90
39881;DHT22;25554;44.954;10.068;2024-01-15T05:25:29;1.10;99.90
39881;DHT22;25554;44.954;10.068;2024-01-15T05:28:02;1.00;99.90
39881;DHT22;25554;44.954;10.068;2024-01-15T05:30:29;1.00;99.90
39881;DHT22;25554;44.954;10.068;2024-01-15T05:32:56;1.10;99.90
39881;DHT22;25554;44.954;10.068;2024-01-15T05:35:24;1.10;99.90
39881;DHT22;25554;44.954;10.068;2024-01-15T05:37:51;1.10;99.90
39881;DHT22;25554;44.954;10.068;2024-01-15T05:40:18;1.10;99.90
39881;DHT22;25554;44.954;10.068;2024-01-15T05:42:45;1.10;99.90
39881;DHT22;25554;44.954;10.068;2024-01-15T05:45:11;0.70;99.90
39881;DHT22;25554;44.954;10.068;2024-01-15T05:47:38;1.20;99.90
39881;DHT22;25554;44.954;10.068;2024-01-15T05:50:04;1.20;99.90
39881;DHT22;25554;44.954;10.068;2024-01-15T05:52:31;1.20;99.90
39881;DHT22;25554;44.954;10.068;2024-01-15T05:54:58;1.20;99.90
39881;DHT22;25554;44.954;10.068;2024-01-15T05:57:24;1.20;99.90
39881;DHT22;25554;44.954;10.068;2024-01-15T05:59:51;1.20;99.90
39881;DHT22;25554;44.954;10.068;2024-01-15T06:02:18;1.60;99.90
39881;DHT22;25554;44.954;10.068;2024-01-15T06:04:44;1.20;99.90
39881;DHT22;25554;44.954;10.068;2024-01-15T06:07:13;1.20;99.90
39881;DHT22;25554;44.954;10.068;2024-01-15T06:09:43;1.20;99.90
39881;DHT22;25554;44.954;10.068;2024-01-15T06:12:09;1.20;99.90
39881;DHT22;25554;44.954;10.068;2024-01-15T06:14:36;1.20;99.90
39881;DHT22;25554;44.954;10.068;2024-01-15T06:17:03;1.20;99.90
39881;DHT22;25554;44.954;10.068;2024-01-15T06:19:29;1.30;99.90
39881;DHT22;25554;44.954;10.068;2024-01-15T06:21:56;1.30;99.90
39881;DHT22;25554;44.954;10.068;2024-01-15T06:24:26;1.30;99.90
39881;DHT22;25554;44.954;10.068;2024-01-15T06:26:52;1.30;99.90
39881;DHT22;25554;44.954;10.068;2024-01-15T06:29:18;1.30;99.90
39881;DHT22;25554;44.954;10.068;2024-01-15T06:32:21;1.40;99.90
39881;DHT22;25554;44.954;10.068;2024-01-15T06:34:48;1.40;99.90
39881;DHT22;25554;44.954;10.068;2024-01-15T06:37:28;1.40;99.90
39881;DHT22;25554;44.954;10.068;2024-01-15T06:40:16;1.40;99.90
39881;DHT22;25554;44.954;10.068;2024-01-15T06:46:32;1.40;99.90
39881;DHT22;25554;44.954;10.068;2024-01-15T06:49:01;1.80;99.90
39881;DHT22;25554;44.954;10.068;2024-01-15T06:51:28;1.50;99.90
39881;DHT22;25554;44.954;10.068;2024-01-15T06:53:55;1.50;99.90
39881;DHT22;25554;44.954;10.068;2024-01-15T06:56:21;1.50;99.90
39881;DHT22;25554;44.954;10.068;2024-01-15T06:58:47;1.50;99.90
39881;DHT22;25554;44.954;10.068;2024-01-15T07:01:13;1.50;99.90
39881;DHT22;25554;44.954;10.068;2024-01-15T07:03:40;1.50;99.90
39881;DHT22;25554;44.954;10.068;2024-01-15T07:06:06;1.50;99.90
39881;DHT22;25554;44.954;10.068;2024-01-15T07:08:32;1.60;99.90
39881;DHT22;25554;44.954;10.068;2024-01-15T07:10:59;1.60;99.90
39881;DHT22;25554;44.954;10.068;2024-01-15T07:13:26;1.60;99.90
39881;DHT22;25554;44.954;10.068;2024-01-15T07:15:52;1.60;99.90
39881;DHT22;25554;44.954;10.068;2024-01-15T07:18:20;1.60;99.90
39881;DHT22;25554;44.954;10.068;2024-01-15T07:20:47;1.60;99.90
39881;DHT22;25554;44.954;10.068;2024-01-15T07:23:13;1.60;99.90
39881;DHT22;25554;44.954;10.068;2024-01-15T07:25:41;1.70;99.90
39881;DHT22;25554;44.954;10.068;2024-01-15T07:28:08;1.70;99.90
39881;DHT22;25554;44.954;10.068;2024-01-15T07:30:35;1.70;99.90
39881;DHT22;25554;44.954;10.068;2024-01-15T07:33:05;1.80;99.90
39881;DHT22;25554;44.954;10.068;2024-01-15T07:35:33;1.80;99.90
39881;DHT22;25554;44.954;10.068;2024-01-15T07:38:00;1.90;99.90
39881;DHT22;25554;44.954;10.068;2024-01-15T07:40:33;1.90;99.90
39881;DHT22;25554;44.954;10.068;2024-01-15T07:43:04;1.90;99.90
39881;DHT22;25554;44.954;10.068;2024-01-15T07:45:30;1.90;99.90
39881;DHT22;25554;44.954;10.068;2024-01-15T07:47:58;2.00;99.90
39881;DHT22;25554;44.954;10.068;2024-01-15T07:50:30;2.00;99.90
39881;DHT22;25554;44.954;10.068;2024-01-15T07:52:59;2.00;99.90
39881;DHT22;25554;44.954;10.068;2024-01-15T07:55:25;2.10;99.90
39881;DHT22;25554;44.954;10.068;2024-01-15T07:57:53;2.10;99.90
39881;DHT22;25554;44.954;10.068;2024-01-15T08:00:25;2.10;99.90
39881;DHT22;25554;44.954;10.068;2024-01-15T08:02:59;2.20;99.90
39881;DHT22;25554;44.954;10.068;2024-01-15T08:05:26;2.20;99.90
39881;DHT22;25554;44.954;10.068;2024-01-15T08:07:55;2.30;99.90
39881;DHT22;25554;44.954;10.068;2024-01-15T08:10:22;2.30;99.90
39881;DHT22;25554;44.954;10.068;2024-01-15T08:12:49;2.30;99.90
39881;DHT22;25554;44.954;10.068;2024-01-15T08:15:16;2.40;99.90
39881;DHT22;25554;44.954;10.068;2024-01-15T08:17:47;2.40;99.90
39881;DHT22;25554;44.954;10.068;2024-01-15T08:20:14;2.40;99.90
39881;DHT22;25554;44.954;10.068;2024-01-15T08:22:42;2.40;99.90
39881;DHT22;25554;44.954;10.068;2024-01-15T08:25:09;2.40;99.90
39881;DHT22;25554;44.954;10.068;2024-01-15T08:27:37;2.50;99.90
39881;DHT22;25554;44.954;10.068;2024-01-15T08:30:08;2.50;99.90
39881;DHT22;25554;44.954;10.068;2024-01-15T08:32:37;2.50;99.90
39881;DHT22;25554;44.954;10.068;2024-01-15T08:35:10;2.50;99.90
39881;DHT22;25554;44.954;10.068;2024-01-15T08:37:38;2.60;99.90
39881;DHT22;25554;44.954;10.068;2024-01-15T08:40:07;2.60;99.90
39881;DHT22;25554;44.954;10.068;2024-01-15T08:42:33;2.70;99.90
39881;DHT22;25554;44.954;10.068;2024-01-15T08:45:00;2.80;99.90
39881;DHT22;25554;44.954;10.068;2024-01-15T08:47:26;2.80;99.90
39881;DHT22;25554;44.954;10.068;2024-01-15T08:49:54;2.80;99.90
39881;DHT22;25554;44.954;10.068;2024-01-15T08:52:20;2.90;99.90
39881;DHT22;25554;44.954;10.068;2024-01-15T08:54:47;2.90;99.90
39881;DHT22;25554;44.954;10.068;2024-01-15T08:57:14;2.90;99.90
39881;DHT22;25554;44.954;10.068;2024-01-15T08:59:41;3.00;99.90
39881;DHT22;25554;44.954;10.068;2024-01-15T09:02:07;3.00;99.90
39881;DHT22;25554;44.954;10.068;2024-01-15T09:04:35;3.00;99.90
39881;DHT22;25554;44.954;10.068;2024-01-15T09:07:01;3.10;99.90
39881;DHT22;25554;44.954;10.068;2024-01-15T09:09:29;3.10;99.90
39881;DHT22;25554;44.954;10.068;2024-01-15T09:11:55;3.10;99.90
39881;DHT22;25554;44.954;10.068;2024-01-15T09:14:25;3.20;99.90
39881;DHT22;25554;44.954;10.068;2024-01-15T09:16:56;3.20;99.90
39881;DHT22;25554;44.954;10.068;2024-01-15T09:19:59;3.20;99.90
39881;DHT22;25554;44.954;10.068;2024-01-15T09:41:13;3.60;99.90
39881;DHT22;25554;44.954;10.068;2024-01-15T09:43:40;3.70;99.90
39881;DHT22;25554;44.954;10.068;2024-01-15T09:46:07;3.80;99.90
39881;DHT22;25554;44.954;10.068;2024-01-15T09:48:34;3.80;99.90
39881;DHT22;25554;44.954;10.068;2024-01-15T09:51:02;3.90;99.90
39881;DHT22;25554;44.954;10.068;2024-01-15T09:53:29;3.90;99.90
39881;DHT22;25554;44.954;10.068;2024-01-15T09:55:58;3.90;99.90
39881;DHT22;25554;44.954;10.068;2024-01-15T10:06:15;4.00;99.90
39881;DHT22;25554;44.954;10.068;2024-01-15T10:09:30;4.00;99.90
39881;DHT22;25554;44.954;10.068;2024-01-15T10:16:47;4.00;99.90
39881;DHT22;25554;44.954;10.068;2024-01-15T10:19:30;4.10;99.90
39881;DHT22;25554;44.954;10.068;2024-01-15T10:28:06;4.20;99.90
39881;DHT22;25554;44.954;10.068;2024-01-15T10:33:01;4.40;99.90
39881;DHT22;25554;44.954;10.068;2024-01-15T10:35:32;4.50;99.90
39881;DHT22;25554;44.954;10.068;2024-01-15T10:37:59;4.60;99.90
39881;DHT22;25554;44.954;10.068;2024-01-15T10:40:26;4.70;99.90
39881;DHT22;25554;44.954;10.068;2024-01-15T10:42:54;4.70;99.90
39881;DHT22;25554;44.954;10.068;2024-01-15T10:45:22;4.80;99.90
39881;DHT22;25554;44.954;10.068;2024-01-15T10:47:48;4.90;99.90
39881;DHT22;25554;44.954;10.068;2024-01-15T10:50:15;5.00;99.90
39881;DHT22;25554;44.954;10.068;2024-01-15T10:52:45;5.00;99.90
39881;DHT22;25554;44.954;10.068;2024-01-15T10:56:03;5.10;99.90
39881;DHT22;25554;44.954;10.068;2024-01-15T11:01:55;5.40;99.90
39881;DHT22;25554;44.954;10.068;2024-01-15T11:04:22;5.50;99.90
39881;DHT22;25554;44.954;10.068;2024-01-15T11:06:53;5.50;99.90
39881;DHT22;25554;44.954;10.068;2024-01-15T11:09:23;5.50;99.90
39881;DHT22;25554;44.954;10.068;2024-01-15T11:12:07;5.70;99.90
39881;DHT22;25554;44.954;10.068;2024-01-15T11:14:42;5.80;99.90
39881;DHT22;25554;44.954;10.068;2024-01-15T11:17:12;5.90;99.90
39881;DHT22;25554;44.954;10.068;2024-01-15T11:19:49;6.00;99.90
39881;DHT22;25554;44.954;10.068;2024-01-15T11:25:12;6.20;99.90
39881;DHT22;25554;44.954;10.068;2024-01-15T11:27:43;6.20;99.90
39881;DHT22;25554;44.954;10.068;2024-01-15T11:30:13;6.30;99.90
39881;DHT22;25554;44.954;10.068;2024-01-15T11:32:40;6.30;99.90
39881;DHT22;25554;44.954;10.068;2024-01-15T11:35:09;6.30;99.90
39881;DHT22;25554;44.954;10.068;2024-01-15T11:43:00;6.50;99.90
39881;DHT22;25554;44.954;10.068;2024-01-15T11:45:26;6.40;99.90
39881;DHT22;25554;44.954;10.068;2024-01-15T11:48:17;6.40;99.90
39881;DHT22;25554;44.954;10.068;2024-01-15T11:50:47;6.40;99.90
39881;DHT22;25554;44.954;10.068;2024-01-15T11:55:58;6.50;99.90
39881;DHT22;25554;44.954;10.068;2024-01-15T11:58:26;6.50;99.90
39881;DHT22;25554;44.954;10.068;2024-01-15T12:00:53;7.00;99.90
39881;DHT22;25554;44.954;10.068;2024-01-15T12:03:21;6.60;99.90
39881;DHT22;25554;44.954;10.068;2024-01-15T12:05:48;6.60;99.90
39881;DHT22;25554;44.954;10.068;2024-01-15T12:08:23;6.70;99.90
39881;DHT22;25554;44.954;10.068;2024-01-15T12:10:50;6.70;99.90
39881;DHT22;25554;44.954;10.068;2024-01-15T12:13:17;6.70;99.90
39881;DHT22;25554;44.954;10.068;2024-01-15T12:15:45;6.80;99.90
39881;DHT22;25554;44.954;10.068;2024-01-15T12:18:15;6.80;99.90
39881;DHT22;25554;44.954;10.068;2024-01-15T12:20:43;7.20;99.90
39881;DHT22;25554;44.954;10.068;2024-01-15T12:23:11;7.00;99.90
39881;DHT22;25554;44.954;10.068;2024-01-15T12:25:40;7.80;99.90
39881;DHT22;25554;44.954;10.068;2024-01-15T12:30:40;7.10;99.90
39881;DHT22;25554;44.954;10.068;2024-01-15T12:33:07;7.10;99.90
39881;DHT22;25554;44.954;10.068;2024-01-15T12:35:35;7.10;99.90
39881;DHT22;25554;44.954;10.068;2024-01-15T12:38:03;7.20;99.90
39881;DHT22;25554;44.954;10.068;2024-01-15T12:40:31;7.20;99.90
39881;DHT22;25554;44.954;10.068;2024-01-15T12:42:59;7.20;99.90
39881;DHT22;25554;44.954;10.068;2024-01-15T12:45:25;7.30;99.90
39881;DHT22;25554;44.954;10.068;2024-01-15T12:47:54;7.30;99.90
39881;DHT22;25554;44.954;10.068;2024-01-15T12:50:24;7.40;99.90
39881;DHT22;25554;44.954;10.068;2024-01-15T12:52:55;7.40;99.90
39881;DHT22;25554;44.954;10.068;2024-01-15T12:55:22;7.50;99.90
39881;DHT22;25554;44.954;10.068;2024-01-15T12:57:48;7.50;99.90
39881;DHT22;25554;44.954;10.068;2024-01-15T13:00:25;7.50;99.90
39881;DHT22;25554;44.954;10.068;2024-01-15T13:02:52;7.60;99.90
39881;DHT22;25554;44.954;10.068;2024-01-15T13:05:23;7.60;99.90
39881;DHT22;25554;44.954;10.068;2024-01-15T13:07:51;7.70;99.90
39881;DHT22;25554;44.954;10.068;2024-01-15T13:10:18;6.50;99.90
39881;DHT22;25554;44.954;10.068;2024-01-15T13:12:47;7.70;99.90
39881;DHT22;25554;44.954;10.068;2024-01-15T13:15:14;7.70;99.90
39881;DHT22;25554;44.954;10.068;2024-01-15T13:17:42;7.80;99.90
39881;DHT22;25554;44.954;10.068;2024-01-15T13:20:09;7.90;99.90
39881;DHT22;25554;44.954;10.068;2024-01-15T13:22:37;7.90;99.90
39881;DHT22;25554;44.954;10.068;2024-01-15T13:25:06;8.00;99.90
39881;DHT22;25554;44.954;10.068;2024-01-15T13:27:37;8.00;99.90
39881;DHT22;25554;44.954;10.068;2024-01-15T13:30:04;6.80;99.90
39881;DHT22;25554;44.954;10.068;2024-01-15T13:32:32;8.10;99.90
39881;DHT22;25554;44.954;10.068;2024-01-15T13:35:00;8.20;99.90
39881;DHT22;25554;44.954;10.068;2024-01-15T13:37:26;8.20;99.90
39881;DHT22;25554;44.954;10.068;2024-01-15T13:39:53;8.30;99.90
39881;DHT22;25554;44.954;10.068;2024-01-15T13:42:20;8.30;99.90
39881;DHT22;25554;44.954;10.068;2024-01-15T13:44:50;8.20;99.90
39881;DHT22;25554;44.954;10.068;2024-01-15T13:47:16;8.30;99.90
39881;DHT22;25554;44.954;10.068;2024-01-15T13:49:43;8.20;99.90
39881;DHT22;25554;44.954;10.068;2024-01-15T13:52:15;8.20;99.90
39881;DHT22;25554;44.954;10.068;2024-01-15T13:54:41;8.30;99.90
39881;DHT22;25554;44.954;10.068;2024-01-15T13:57:08;8.30;99.90
39881;DHT22;25554;44.954;10.068;2024-01-15T13:59:34;8.40;99.90
39881;DHT22;25554;44.954;10.068;2024-01-15T14:04:28;8.50;99.90
39881;DHT22;25554;44.954;10.068;2024-01-15T14:06:56;8.50;99.90
39881;DHT22;25554;44.954;10.068;2024-01-15T14:09:22;8.50;99.90
39881;DHT22;25554;44.954;10.068;2024-01-15T14:11:49;8.50;99.90
39881;DHT22;25554;44.954;10.068;2024-01-15T14:14:15;8.60;99.90
39881;DHT22;25554;44.954;10.068;2024-01-15T14:16:43;8.60;99.90
39881;DHT22;25554;44.954;10.068;2024-01-15T14:19:09;8.60;99.90
39881;DHT22;25554;44.954;10.068;2024-01-15T14:21:36;8.60;99.90
39881;DHT22;25554;44.954;10.068;2024-01-15T14:24:03;8.60;99.90
39881;DHT22;25554;44.954;10.068;2024-01-15T14:26:30;7.30;99.90
39881;DHT22;25554;44.954;10.068;2024-01-15T14:28:58;8.60;99.90
39881;DHT22;25554;44.954;10.068;2024-01-15T14:31:27;8.60;99.90
39881;DHT22;25554;44.954;10.068;2024-01-15T14:33:54;8.80;99.90
39881;DHT22;25554;44.954;10.068;2024-01-15T14:36:25;8.10;99.90
39881;DHT22;25554;44.954;10.068;2024-01-15T14:38:55;8.50;99.90
39881;DHT22;25554;44.954;10.068;2024-01-15T14:41:25;8.50;99.90
39881;DHT22;25554;44.954;10.068;2024-01-15T14:43:55;8.50;99.90
39881;DHT22;25554;44.954;10.068;2024-01-15T14:46:23;8.50;99.90
39881;DHT22;25554;44.954;10.068;2024-01-15T14:48:50;8.50;99.90
39881;DHT22;25554;44.954;10.068;2024-01-15T14:51:17;8.40;99.90
39881;DHT22;25554;44.954;10.068;2024-01-15T14:53:43;8.40;99.90
39881;DHT22;25554;44.954;10.068;2024-01-15T14:56:12;8.40;99.90
39881;DHT22;25554;44.954;10.068;2024-01-15T14:58:39;8.40;99.90
39881;DHT22;25554;44.954;10.068;2024-01-15T15:01:06;8.40;99.90
39881;DHT22;25554;44.954;10.068;2024-01-15T15:03:32;8.30;99.90
39881;DHT22;25554;44.954;10.068;2024-01-15T15:05:58;8.30;99.90
39881;DHT22;25554;44.954;10.068;2024-01-15T15:08:24;8.20;99.90
39881;DHT22;25554;44.954;10.068;2024-01-15T15:10:51;8.20;99.90
39881;DHT22;25554;44.954;10.068;2024-01-15T15:13:17;8.10;99.90
39881;DHT22;25554;44.954;10.068;2024-01-15T15:15:43;8.00;99.90
39881;DHT22;25554;44.954;10.068;2024-01-15T15:18:10;7.90;99.90
39881;DHT22;25554;44.954;10.068;2024-01-15T15:20:36;7.90;99.90
39881;DHT22;25554;44.954;10.068;2024-01-15T15:23:04;7.80;99.90
39881;DHT22;25554;44.954;10.068;2024-01-15T15:25:34;7.70;99.90
39881;DHT22;25554;44.954;10.068;2024-01-15T15:28:02;7.70;99.90
39881;DHT22;25554;44.954;10.068;2024-01-15T15:30:31;8.50;99.90
39881;DHT22;25554;44.954;10.068;2024-01-15T15:32:57;7.50;99.90
39881;DHT22;25554;44.954;10.068;2024-01-15T15:35:24;7.40;99.90
39881;DHT22;25554;44.954;10.068;2024-01-15T15:37:50;7.30;99.90
39881;DHT22;25554;44.954;10.068;2024-01-15T15:40:16;7.30;99.90
39881;DHT22;25554;44.954;10.068;2024-01-15T15:42:43;7.20;99.90
39881;DHT22;25554;44.954;10.068;2024-01-15T15:45:09;7.10;99.90
39881;DHT22;25554;44.954;10.068;2024-01-15T15:47:36;7.00;99.90
39881;DHT22;25554;44.954;10.068;2024-01-15T15:50:02;6.90;99.90
39881;DHT22;25554;44.954;10.068;2024-01-15T15:52:28;6.90;99.90
39881;DHT22;25554;44.954;10.068;2024-01-15T15:54:55;6.80;99.90
39881;DHT22;25554;44.954;10.068;2024-01-15T15:57:21;6.70;99.90
39881;DHT22;25554;44.954;10.068;2024-01-15T15:59:48;6.60;99.90
39881;DHT22;25554;44.954;10.068;2024-01-15T16:02:14;6.60;99.90
39881;DHT22;25554;44.954;10.068;2024-01-15T16:04:41;6.50;99.90
39881;DHT22;25554;44.954;10.068;2024-01-15T16:07:07;6.40;99.90
39881;DHT22;25554;44.954;10.068;2024-01-15T16:09:36;6.30;99.90
39881;DHT22;25554;44.954;10.068;2024-01-15T16:12:02;6.20;99.90
39881;DHT22;25554;44.954;10.068;2024-01-15T16:14:29;6.20;99.90
39881;DHT22;25554;44.954;10.068;2024-01-15T16:16:55;6.10;99.90
39881;DHT22;25554;44.954;10.068;2024-01-15T16:19:24;6.00;99.90
39881;DHT22;25554;44.954;10.068;2024-01-15T16:21:50;5.90;99.90
39881;DHT22;25554;44.954;10.068;2024-01-15T16:24:17;5.80;99.90
39881;DHT22;25554;44.954;10.068;2024-01-15T16:26:44;5.80;99.90
39881;DHT22;25554;44.954;10.068;2024-01-15T16:29:11;5.70;99.90
39881;DHT22;25554;44.954;10.068;2024-01-15T16:31:40;5.50;99.90
39881;DHT22;25554;44.954;10.068;2024-01-15T16:34:06;5.50;99.90
39881;DHT22;25554;44.954;10.068;2024-01-15T16:36:33;5.40;99.90
39881;DHT22;25554;44.954;10.068;2024-01-15T16:39:00;5.30;99.90